createdAt,value
2023-03-15T00:00:14.809Z,0.43
2023-03-15T00:02:41.773Z,0.50
2023-03-15T00:05:12.937Z,0.43
2023-03-15T00:07:39.472Z,0.30
2023-03-15T00:10:06.167Z,0.40
2023-03-15T00:12:34.343Z,0.40
2023-03-15T00:15:00.798Z,0.40
2023-03-15T00:17:27.179Z,0.50
2023-03-15T00:19:53.597Z,0.50
2023-03-15T00:22:20.072Z,0.40
2023-03-15T00:24:46.660Z,0.57
2023-03-15T00:27:13.037Z,0.30
2023-03-15T00:29:39.543Z,0.40
2023-03-15T00:32:06.094Z,0.50
2023-03-15T00:34:33.762Z,0.40
2023-03-15T00:37:00.429Z,0.50
2023-03-15T00:39:26.817Z,0.50
2023-03-15T00:41:56.955Z,0.50
2023-03-15T00:44:24.469Z,0.60
2023-03-15T00:46:51.019Z,0.50
2023-03-15T00:49:17.507Z,0.57
2023-03-15T00:51:43.948Z,0.47
2023-03-15T00:54:13.852Z,0.35
2023-03-15T00:56:41.307Z,0.40
2023-03-15T00:59:08.627Z,0.52
2023-03-15T01:01:35.336Z,0.30
2023-03-15T01:04:01.778Z,0.40
2023-03-15T01:06:28.758Z,0.35
2023-03-15T01:08:56.717Z,0.30
2023-03-15T01:11:24.448Z,0.50
2023-03-15T01:13:52.666Z,0.40
2023-03-15T01:16:19.136Z,0.38
2023-03-15T01:18:45.583Z,0.20
2023-03-15T01:21:13.225Z,0.50
2023-03-15T01:23:39.947Z,0.40
2023-03-15T01:26:07.673Z,0.50
2023-03-15T01:28:34.405Z,0.40
2023-03-15T01:31:00.926Z,0.40
2023-03-15T01:33:27.798Z,0.60
2023-03-15T01:36:04.832Z,0.32
2023-03-15T01:38:31.516Z,0.40
2023-03-15T01:40:57.962Z,0.40
2023-03-15T01:43:25.652Z,0.45
2023-03-15T01:46:03.138Z,0.47
2023-03-15T01:48:32.766Z,0.35
2023-03-15T01:51:00.187Z,0.45
2023-03-15T01:53:27.209Z,0.40
2023-03-15T01:55:54.549Z,0.40
2023-03-15T01:58:24.093Z,0.35
2023-03-15T02:00:53.019Z,0.50
2023-03-15T02:03:29.768Z,0.30
2023-03-15T02:06:03.443Z,0.30
2023-03-15T02:08:32.857Z,0.47
2023-03-15T02:11:00.369Z,0.50
2023-03-15T02:13:28.771Z,0.40
2023-03-15T02:15:56.155Z,0.30
2023-03-15T02:18:22.983Z,0.40
2023-03-15T02:21:00.357Z,0.30
2023-03-15T02:23:27.248Z,0.20
2023-03-15T02:25:56.620Z,0.30
2023-03-15T02:28:23.648Z,0.30
2023-03-15T02:30:50.736Z,0.32
2023-03-15T02:33:20.328Z,0.30
2023-03-15T02:35:46.887Z,0.38
2023-03-15T02:38:13.425Z,0.30
2023-03-15T02:40:40.313Z,0.30
2023-03-15T02:43:08.873Z,0.40
2023-03-15T02:45:35.797Z,0.40
2023-03-15T02:48:02.949Z,0.40
2023-03-15T02:50:29.343Z,0.40
2023-03-15T02:52:55.845Z,0.30
2023-03-15T02:55:22.240Z,0.40
2023-03-15T02:57:49.151Z,0.40
2023-03-15T03:00:15.816Z,0.38
2023-03-15T03:02:43.835Z,0.30
2023-03-15T03:05:11.339Z,0.40
2023-03-15T03:07:38.123Z,0.30
2023-03-15T03:10:07.923Z,0.40
2023-03-15T03:12:34.422Z,0.20
2023-03-15T03:15:02.782Z,0.55
2023-03-15T03:17:29.342Z,0.32
2023-03-15T03:19:55.832Z,0.30
2023-03-15T03:22:24.979Z,0.32
2023-03-15T03:24:52.046Z,0.43
2023-03-15T03:27:19.160Z,0.30
2023-03-15T03:29:45.617Z,0.30
2023-03-15T03:32:12.252Z,0.32
2023-03-15T03:34:38.698Z,0.50
2023-03-15T03:37:05.227Z,0.30
2023-03-15T03:39:31.700Z,0.30
2023-03-15T03:41:58.134Z,0.30
2023-03-15T03:44:24.597Z,0.35
2023-03-15T03:46:51.012Z,0.40
2023-03-15T03:49:17.566Z,0.40
2023-03-15T03:51:44.030Z,0.50
2023-03-15T03:54:10.472Z,0.30
2023-03-15T03:56:37.973Z,0.25
2023-03-15T03:59:04.512Z,0.25
2023-03-15T04:01:31.220Z,0.35
2023-03-15T04:03:57.917Z,0.45
2023-03-15T04:06:24.413Z,0.28
2023-03-15T04:08:52.193Z,0.30
2023-03-15T04:11:18.667Z,0.30
2023-03-15T04:13:48.060Z,0.50
2023-03-15T04:16:14.721Z,0.40
2023-03-15T04:18:41.201Z,0.35
2023-03-15T04:21:10.835Z,0.40
2023-03-15T04:23:38.026Z,0.10
2023-03-15T04:26:05.764Z,0.20
2023-03-15T04:28:32.499Z,0.30
2023-03-15T04:30:59.156Z,0.38
2023-03-15T04:33:26.402Z,0.22
2023-03-15T04:35:52.944Z,0.30
2023-03-15T04:38:19.601Z,0.30
2023-03-15T04:40:46.038Z,0.30
2023-03-15T04:43:12.769Z,0.40
2023-03-15T04:45:39.199Z,0.20
2023-03-15T04:48:05.704Z,0.20
2023-03-15T04:50:32.186Z,0.30
2023-03-15T04:52:59.730Z,0.30
2023-03-15T04:55:26.384Z,0.30
2023-03-15T04:57:52.853Z,0.40
2023-03-15T05:00:19.423Z,0.30
2023-03-15T05:02:52.047Z,0.30
2023-03-15T05:05:18.519Z,0.68
2023-03-15T05:07:44.932Z,0.20
2023-03-15T05:10:11.767Z,0.35
2023-03-15T05:12:38.382Z,0.30
2023-03-15T05:15:05.128Z,0.30
2023-03-15T05:17:33.754Z,0.30
2023-03-15T05:20:01.941Z,0.25
2023-03-15T05:22:28.397Z,0.32
2023-03-15T05:24:54.834Z,0.30
2023-03-15T05:27:21.210Z,0.40
2023-03-15T05:29:47.638Z,0.30
2023-03-15T05:32:14.136Z,0.20
2023-03-15T05:34:40.635Z,0.30
2023-03-15T05:37:07.088Z,0.20
2023-03-15T05:39:34.776Z,0.28
2023-03-15T05:42:02.103Z,0.28
2023-03-15T05:44:28.524Z,0.25
2023-03-15T05:46:54.933Z,0.63
2023-03-15T05:49:21.381Z,0.38
2023-03-15T05:51:47.964Z,0.50
2023-03-15T05:54:14.352Z,0.43
2023-03-15T05:56:40.736Z,0.32
2023-03-15T05:59:07.173Z,0.40
2023-03-15T06:01:33.677Z,0.40
2023-03-15T06:04:00.087Z,0.30
2023-03-15T06:06:26.544Z,0.30
2023-03-15T06:08:53.011Z,0.40
2023-03-15T06:11:19.492Z,0.30
2023-03-15T06:13:45.876Z,0.40
2023-03-15T06:16:12.310Z,0.30
2023-03-15T06:18:38.738Z,0.30
2023-03-15T06:21:05.198Z,0.50
2023-03-15T06:23:31.622Z,0.50
2023-03-15T06:25:58.173Z,0.40
2023-03-15T06:28:24.582Z,0.30
2023-03-15T06:30:51.198Z,0.52
2023-03-15T06:33:18.038Z,0.40
2023-03-15T06:35:46.842Z,0.40
2023-03-15T06:38:14.411Z,0.43
2023-03-15T06:40:41.048Z,0.30
2023-03-15T06:43:07.609Z,0.30
2023-03-15T06:45:34.055Z,0.45
2023-03-15T06:48:00.675Z,0.40
2023-03-15T06:50:29.545Z,0.60
2023-03-15T06:53:00.766Z,0.38
2023-03-15T06:55:27.165Z,0.32
2023-03-15T06:57:53.720Z,0.75
2023-03-15T07:00:20.400Z,0.30
2023-03-15T07:02:47.118Z,0.47
2023-03-15T07:05:13.748Z,0.50
2023-03-15T07:07:40.762Z,0.40
2023-03-15T07:10:07.942Z,0.30
2023-03-15T07:12:34.352Z,0.40
2023-03-15T07:15:00.954Z,0.30
2023-03-15T07:17:27.442Z,0.50
2023-03-15T07:19:56.770Z,0.40
2023-03-15T07:22:23.528Z,0.40
2023-03-15T07:24:49.951Z,0.50
2023-03-15T07:27:19.127Z,0.40
2023-03-15T07:29:45.857Z,0.60
2023-03-15T07:32:12.338Z,0.65
2023-03-15T07:34:38.802Z,0.45
2023-03-15T07:37:05.273Z,0.40
2023-03-15T07:39:32.617Z,0.38
2023-03-15T07:41:59.527Z,0.45
2023-03-15T07:44:25.977Z,0.77
2023-03-15T07:46:52.668Z,0.60
2023-03-15T07:49:19.229Z,0.50
2023-03-15T07:51:45.667Z,0.40
2023-03-15T07:54:12.089Z,0.70
2023-03-15T07:56:38.480Z,0.45
2023-03-15T07:59:04.921Z,0.38
2023-03-15T08:01:31.717Z,0.50
2023-03-15T08:03:58.156Z,0.40
2023-03-15T08:06:24.541Z,0.45
2023-03-15T08:08:51.372Z,0.40
2023-03-15T08:11:17.721Z,0.60
2023-03-15T08:13:44.142Z,0.60
2023-03-15T08:16:10.637Z,0.60
2023-03-15T08:18:37.140Z,0.40
2023-03-15T08:21:04.255Z,0.60
2023-03-15T08:23:31.255Z,0.30
2023-03-15T08:25:58.115Z,0.50
2023-03-15T08:28:24.544Z,0.30
2023-03-15T08:30:50.965Z,0.40
2023-03-15T08:33:17.539Z,0.40
2023-03-15T08:35:44.035Z,0.50
2023-03-15T08:38:10.726Z,0.40
2023-03-15T08:40:38.903Z,0.45
2023-03-15T08:43:06.180Z,0.50
2023-03-15T08:45:37.447Z,0.45
2023-03-15T08:48:09.476Z,0.40
2023-03-15T08:50:36.839Z,0.45
2023-03-15T08:53:03.237Z,0.50
2023-03-15T08:55:29.635Z,0.43
2023-03-15T08:57:56.121Z,0.47
2023-03-15T09:00:25.527Z,0.55
2023-03-15T09:02:52.346Z,0.60
2023-03-15T09:05:19.279Z,0.50
2023-03-15T09:07:46.083Z,0.50
2023-03-15T09:10:15.018Z,0.60
2023-03-15T09:12:46.081Z,0.52
2023-03-15T09:15:12.773Z,0.55
2023-03-15T09:17:39.878Z,0.70
2023-03-15T09:20:11.377Z,0.55
2023-03-15T09:22:39.677Z,0.90
2023-03-15T09:25:06.524Z,0.70
2023-03-15T09:27:33.343Z,0.70
2023-03-15T09:29:59.789Z,0.73
2023-03-15T09:32:26.644Z,0.85
2023-03-15T09:34:53.094Z,0.70
2023-03-15T09:37:21.900Z,0.98
2023-03-15T09:39:50.184Z,0.82
2023-03-15T09:42:20.101Z,0.57
2023-03-15T09:45:01.415Z,0.70
2023-03-15T09:47:46.391Z,0.60
2023-03-15T09:50:21.580Z,0.47
2023-03-15T09:52:57.059Z,0.60
2023-03-15T09:55:25.427Z,0.50
2023-03-15T09:57:57.937Z,0.40
2023-03-15T10:00:42.975Z,0.40
2023-03-15T10:03:15.884Z,0.60
2023-03-15T10:05:44.455Z,0.65
2023-03-15T10:08:17.732Z,0.57
2023-03-15T10:10:53.038Z,0.60
2023-03-15T10:13:19.505Z,0.47
2023-03-15T10:16:06.296Z,0.55
2023-03-15T10:18:47.340Z,0.60
2023-03-15T10:21:22.017Z,0.50
2023-03-15T10:23:53.591Z,0.50
2023-03-15T10:26:23.003Z,0.60
2023-03-15T10:28:50.139Z,0.52
2023-03-15T10:31:29.401Z,0.50
2023-03-15T10:33:59.275Z,0.60
2023-03-15T10:36:26.075Z,0.65
2023-03-15T10:38:52.568Z,0.43
2023-03-15T10:41:38.897Z,0.50
2023-03-15T10:44:12.157Z,0.38
2023-03-15T10:46:38.684Z,0.43
2023-03-15T10:49:10.062Z,0.80
2023-03-15T10:51:41.566Z,0.47
2023-03-15T10:54:18.533Z,0.40
2023-03-15T10:56:49.780Z,0.50
2023-03-15T10:59:17.851Z,0.40
2023-03-15T11:01:48.141Z,0.45
2023-03-15T11:04:14.691Z,0.50
2023-03-15T11:06:46.440Z,0.45
2023-03-15T11:09:22.854Z,0.55
2023-03-15T11:11:51.707Z,0.40
2023-03-15T11:14:18.380Z,0.60
2023-03-15T11:16:47.265Z,0.50
2023-03-15T11:19:16.107Z,0.77
2023-03-15T11:21:42.640Z,0.77
2023-03-15T11:24:15.977Z,0.60
2023-03-15T11:26:46.132Z,0.32
2023-03-15T11:29:12.537Z,0.30
2023-03-15T11:31:39.265Z,0.40
2023-03-15T11:34:28.848Z,0.60
2023-03-15T11:37:08.123Z,0.47
2023-03-15T11:39:45.264Z,0.80
2023-03-15T11:42:32.231Z,0.55
2023-03-15T11:45:01.790Z,0.40
2023-03-15T11:47:37.644Z,0.40
2023-03-15T11:50:04.383Z,0.40
2023-03-15T11:52:30.957Z,0.50
2023-03-15T11:54:58.539Z,0.50
2023-03-15T11:57:41.613Z,0.50
2023-03-15T12:00:17.399Z,0.40
2023-03-15T12:02:54.641Z,0.50
2023-03-15T12:05:40.202Z,0.50
2023-03-15T12:08:21.643Z,0.30
2023-03-15T12:10:49.830Z,0.40
2023-03-15T12:13:35.788Z,0.60
2023-03-15T12:16:05.999Z,0.40
2023-03-15T12:18:38.361Z,0.40
2023-03-15T12:23:35.847Z,0.40
2023-03-15T12:26:02.240Z,0.50
2023-03-15T12:28:33.879Z,0.40
2023-03-15T12:31:02.325Z,0.30
2023-03-15T12:33:30.540Z,0.30
2023-03-15T12:36:08.107Z,0.30
2023-03-15T12:38:38.963Z,0.38
2023-03-15T12:41:09.427Z,0.50
2023-03-15T12:43:35.810Z,0.40
2023-03-15T12:46:02.253Z,0.40
2023-03-15T12:48:28.840Z,0.35
2023-03-15T12:50:56.668Z,0.40
2023-03-15T12:53:31.972Z,0.30
2023-03-15T12:56:12.766Z,0.40
2023-03-15T12:58:41.193Z,0.35
2023-03-15T13:01:08.227Z,0.30
2023-03-15T13:03:35.618Z,0.50
2023-03-15T13:06:08.681Z,0.40
2023-03-15T13:08:38.106Z,0.30
2023-03-15T13:11:25.761Z,0.32
2023-03-15T13:13:59.840Z,0.40
2023-03-15T13:16:38.344Z,0.40
2023-03-15T13:19:06.235Z,0.50
2023-03-15T13:21:37.196Z,0.40
2023-03-15T13:24:10.135Z,0.40
2023-03-15T13:26:43.109Z,0.40
2023-03-15T13:29:19.451Z,0.40
2023-03-15T13:31:46.855Z,0.50
2023-03-15T13:34:15.160Z,0.22
2023-03-15T13:36:46.048Z,0.43
2023-03-15T13:39:25.053Z,0.32
2023-03-15T13:41:58.014Z,0.43
2023-03-15T13:44:25.406Z,0.50
2023-03-15T13:46:52.548Z,0.40
2023-03-15T13:49:19.330Z,0.50
2023-03-15T13:51:46.684Z,0.50
2023-03-15T13:54:16.783Z,0.47
2023-03-15T13:57:07.264Z,0.43
2023-03-15T13:59:52.986Z,0.35
2023-03-15T14:02:20.800Z,0.50
2023-03-15T14:04:50.917Z,0.32
2023-03-15T14:07:28.218Z,0.40
2023-03-15T14:10:13.499Z,0.50
2023-03-15T14:12:39.893Z,0.30
2023-03-15T14:15:14.377Z,0.30
2023-03-15T14:17:50.577Z,0.40
2023-03-15T14:20:17.206Z,0.40
2023-03-15T14:22:43.753Z,0.40
2023-03-15T14:25:21.202Z,0.50
2023-03-15T14:27:47.821Z,0.50
2023-03-15T14:30:19.200Z,0.50
2023-03-15T14:32:56.356Z,0.50
2023-03-15T14:35:22.863Z,0.40
2023-03-15T14:38:00.306Z,0.40
2023-03-15T14:40:36.522Z,0.38
2023-03-15T14:43:03.866Z,0.50
2023-03-15T14:45:34.138Z,0.47
2023-03-15T14:48:23.906Z,0.40
2023-03-15T14:50:50.547Z,0.40
2023-03-15T14:53:18.817Z,0.50
2023-03-15T14:55:45.418Z,0.40
2023-03-15T14:58:13.303Z,0.30
2023-03-15T15:00:40.063Z,0.45
2023-03-15T15:03:26.733Z,0.63
2023-03-15T15:05:53.209Z,0.75
2023-03-15T15:08:22.343Z,0.50
2023-03-15T15:10:50.553Z,0.50
2023-03-15T15:13:24.199Z,0.47
2023-03-15T15:15:56.186Z,0.50
2023-03-15T15:18:27.524Z,0.40
2023-03-15T15:20:56.224Z,0.77
2023-03-15T15:23:28.178Z,0.60
2023-03-15T15:25:58.908Z,0.45
2023-03-15T15:28:34.900Z,0.50
2023-03-15T15:31:02.164Z,0.40
2023-03-15T15:33:28.568Z,0.43
2023-03-15T15:35:56.282Z,0.50
2023-03-15T15:38:29.271Z,0.43
2023-03-15T15:40:55.709Z,0.50
2023-03-15T15:43:22.198Z,0.50
2023-03-15T15:45:48.597Z,0.68
2023-03-15T15:48:15.059Z,0.45
2023-03-15T15:50:41.512Z,0.57
2023-03-15T15:53:08.092Z,0.80
2023-03-15T15:55:35.711Z,0.47
2023-03-15T15:58:02.847Z,0.40
2023-03-15T16:00:29.788Z,0.50
2023-03-15T16:02:57.016Z,0.40
2023-03-15T16:05:25.200Z,0.35
2023-03-15T16:07:51.845Z,0.40
2023-03-15T16:10:19.751Z,0.55
2023-03-15T16:12:46.604Z,0.60
2023-03-15T16:15:15.118Z,0.65
2023-03-15T16:17:41.559Z,0.57
2023-03-15T16:20:09.314Z,0.50
2023-03-15T16:22:37.142Z,0.50
2023-03-15T16:25:06.996Z,0.43
2023-03-15T16:27:33.416Z,0.52
2023-03-15T16:29:59.823Z,0.50
2023-03-15T16:32:42.962Z,0.55
2023-03-15T16:35:17.108Z,0.43
2023-03-15T16:37:43.897Z,0.40
2023-03-15T16:40:17.691Z,0.40
2023-03-15T16:42:44.135Z,0.50
2023-03-15T16:45:14.071Z,0.50
2023-03-15T16:47:40.512Z,0.50
2023-03-15T16:50:07.022Z,0.38
2023-03-15T16:52:33.435Z,0.57
2023-03-15T16:55:00.211Z,0.50
2023-03-15T16:57:27.270Z,0.50
2023-03-15T16:59:53.838Z,0.45
2023-03-15T17:02:21.517Z,0.50
2023-03-15T17:04:48.019Z,0.55
2023-03-15T17:07:15.184Z,0.40
2023-03-15T17:09:43.067Z,0.52
2023-03-15T17:12:28.288Z,0.43
2023-03-15T17:14:56.223Z,0.60
2023-03-15T17:17:22.757Z,0.60
2023-03-15T17:19:50.901Z,0.80
2023-03-15T17:22:17.505Z,0.60
2023-03-15T17:24:44.507Z,0.60
2023-03-15T17:27:19.036Z,0.52
2023-03-15T17:29:45.463Z,0.70
2023-03-15T17:32:11.961Z,0.82
2023-03-15T17:34:38.705Z,0.80
2023-03-15T17:37:05.270Z,0.60
2023-03-15T17:39:31.655Z,0.93
2023-03-15T17:42:00.114Z,0.75
2023-03-15T17:44:26.792Z,0.90
2023-03-15T17:46:53.231Z,0.95
2023-03-15T17:49:19.657Z,0.98
2023-03-15T17:51:46.240Z,0.93
2023-03-15T17:54:17.873Z,1.38
2023-03-15T17:56:44.289Z,1.30
2023-03-15T17:59:11.895Z,1.58
2023-03-15T18:01:39.262Z,1.60
2023-03-15T18:04:06.243Z,1.58
2023-03-15T18:06:32.706Z,1.85
2023-03-15T18:08:59.169Z,1.80
2023-03-15T18:11:42.183Z,1.77
2023-03-15T18:14:13.707Z,2.03
2023-03-15T18:16:40.643Z,2.40
2023-03-15T18:19:07.252Z,2.05
2023-03-15T18:21:33.752Z,2.13
2023-03-15T18:24:00.304Z,2.10
2023-03-15T18:26:26.733Z,1.92
2023-03-15T18:28:53.381Z,2.03
2023-03-15T18:31:21.243Z,2.10
2023-03-15T18:33:47.784Z,2.20
2023-03-15T18:36:14.301Z,2.10
2023-03-15T18:38:41.156Z,2.35
2023-03-15T18:41:20.433Z,2.15
2023-03-15T18:43:49.857Z,2.13
2023-03-15T18:46:17.569Z,2.40
2023-03-15T18:48:45.352Z,2.50
2023-03-15T18:51:12.688Z,2.53
2023-03-15T18:53:39.407Z,2.70
2023-03-15T18:56:05.988Z,2.47
2023-03-15T18:58:32.437Z,2.70
2023-03-15T19:00:58.854Z,2.72
2023-03-15T19:03:25.353Z,2.85
2023-03-15T19:05:51.776Z,2.95
2023-03-15T19:08:18.359Z,2.88
2023-03-15T19:10:46.905Z,3.40
2023-03-15T19:13:13.301Z,2.90
2023-03-15T19:15:39.814Z,3.05
2023-03-15T19:18:06.524Z,3.10
2023-03-15T19:20:34.241Z,3.28
2023-03-15T19:23:00.671Z,2.97
2023-03-15T19:25:27.088Z,3.00
2023-03-15T19:27:53.501Z,2.88
2023-03-15T19:30:22.240Z,3.15
2023-03-15T19:32:50.038Z,3.30
2023-03-15T19:35:17.735Z,3.80
2023-03-15T19:37:44.551Z,3.17
2023-03-15T19:40:12.536Z,3.38
2023-03-15T19:42:39.091Z,2.90
2023-03-15T19:45:06.066Z,3.00
2023-03-15T19:47:32.573Z,3.30
2023-03-15T19:49:58.962Z,3.47
2023-03-15T19:52:27.272Z,3.08
2023-03-15T19:54:53.714Z,3.40
2023-03-15T19:57:20.464Z,3.20
2023-03-15T19:59:46.833Z,3.30
2023-03-15T20:02:13.607Z,3.00
2023-03-15T20:04:40.057Z,3.42
2023-03-15T20:07:06.503Z,3.33
2023-03-15T20:09:38.932Z,2.97
2023-03-15T20:12:10.001Z,3.28
2023-03-15T20:14:36.447Z,3.28
2023-03-15T20:17:03.530Z,2.92
2023-03-15T20:19:30.549Z,2.70
2023-03-15T20:22:00.019Z,2.90
2023-03-15T20:24:27.218Z,3.13
2023-03-15T20:26:53.696Z,2.97
2023-03-15T20:29:23.415Z,3.00
2023-03-15T20:31:55.156Z,2.80
2023-03-15T20:34:25.341Z,3.20
2023-03-15T20:36:55.330Z,3.05
2023-03-15T20:39:26.618Z,3.15
2023-03-15T20:41:57.737Z,3.03
2023-03-15T20:44:27.132Z,3.13
2023-03-15T20:47:00.769Z,3.50
2023-03-15T20:49:30.752Z,2.85
2023-03-15T20:52:01.482Z,3.50
2023-03-15T20:54:31.462Z,3.00
2023-03-15T20:57:02.498Z,3.15
2023-03-15T20:59:34.365Z,3.13
2023-03-15T21:02:06.777Z,3.28
2023-03-15T21:04:37.789Z,3.28
2023-03-15T21:07:08.769Z,3.42
2023-03-15T21:09:39.846Z,3.30
2023-03-15T21:12:08.025Z,3.53
2023-03-15T21:14:34.681Z,3.72
2023-03-15T21:17:01.899Z,3.40
2023-03-15T21:19:28.801Z,3.58
2023-03-15T21:21:57.036Z,3.78
2023-03-15T21:24:23.470Z,3.25
2023-03-15T21:26:54.699Z,4.30
2023-03-15T21:29:21.392Z,3.70
2023-03-15T21:31:48.074Z,3.90
2023-03-15T21:34:14.694Z,4.03
2023-03-15T21:36:41.131Z,4.07
2023-03-15T21:39:07.987Z,4.32
2023-03-15T21:41:34.440Z,4.15
2023-03-15T21:44:00.877Z,4.63
2023-03-15T21:46:27.316Z,4.00
2023-03-15T21:48:53.758Z,4.30
2023-03-15T21:51:22.519Z,4.50
2023-03-15T21:53:50.271Z,3.90
2023-03-15T21:56:16.767Z,4.90
2023-03-15T21:58:43.282Z,4.20
2023-03-15T22:01:10.457Z,4.70
2023-03-15T22:03:37.012Z,4.35
2023-03-15T22:06:03.659Z,4.32
2023-03-15T22:08:30.094Z,4.38
2023-03-15T22:10:57.419Z,4.53
2023-03-15T22:13:24.261Z,4.53
2023-03-15T22:15:52.337Z,4.45
2023-03-15T22:18:19.078Z,4.72
2023-03-15T22:20:49.208Z,4.47
2023-03-15T22:23:15.888Z,4.22
2023-03-15T22:25:42.329Z,3.88
2023-03-15T22:28:08.835Z,4.50
2023-03-15T22:30:35.344Z,4.25
2023-03-15T22:33:01.952Z,4.35
2023-03-15T22:35:28.542Z,4.13
2023-03-15T22:37:56.915Z,3.78
2023-03-15T22:40:25.030Z,3.45
2023-03-15T22:42:52.766Z,4.35
2023-03-15T22:45:21.938Z,4.05
2023-03-15T22:47:49.196Z,4.38
2023-03-15T22:50:15.793Z,4.25
2023-03-15T22:52:42.284Z,3.50
2023-03-15T22:55:09.372Z,3.88
2023-03-15T22:57:35.782Z,3.38
2023-03-15T23:00:02.363Z,3.88
2023-03-15T23:02:28.804Z,3.55
2023-03-15T23:04:55.349Z,3.78
2023-03-15T23:07:21.859Z,3.40
2023-03-15T23:09:48.282Z,3.83
2023-03-15T23:12:18.017Z,3.30
2023-03-15T23:14:44.819Z,3.38
2023-03-15T23:17:11.426Z,3.70
2023-03-15T23:19:37.853Z,3.60
2023-03-15T23:22:04.775Z,3.10
2023-03-15T23:24:34.086Z,3.20
2023-03-15T23:27:04.471Z,3.30
2023-03-15T23:29:32.564Z,3.47
2023-03-15T23:31:59.084Z,3.25
2023-03-15T23:34:25.932Z,3.00
2023-03-15T23:36:52.907Z,3.08
2023-03-15T23:39:19.476Z,3.38
2023-03-15T23:41:47.838Z,3.00
2023-03-15T23:44:14.761Z,3.47
2023-03-15T23:46:41.350Z,3.55
2023-03-15T23:49:08.455Z,3.90
2023-03-15T23:51:34.963Z,3.95
2023-03-15T23:54:01.790Z,3.50
2023-03-15T23:56:28.541Z,2.97
2023-03-15T23:58:54.981Z,3.17
